AirNav   Everest Fuels
 
 638 users online  

1NC4 Bell Strip Airport
Pollocksville, North Carolina, USA

GOING TO POLLOCKSVILLE?


FAA INFORMATION EFFECTIVE 03 NOVEMBER 2022

Location

FAA Identifier: 1NC4
Lat/Long: 34-59-43.5680N 077-15-27.8400W
34-59.726133N 077-15.464000W
34.9954356,-77.2577333
(estimated)
Elevation: 35 ft. / 10.7 m (surveyed)
Variation: 08W (1985)
From city: 2 miles SW of POLLOCKSVILLE, NC
Time zone: UTC -5 (UTC -4 during Daylight Saving Time)
Zip code: 28573

Airport Operations

Airport use: Private use. Permission required prior to landing
Control tower: no
ARTCC: WASHINGTON CENTER
FSS: RALEIGH FLIGHT SERVICE STATION
Attendance: UNATNDD
Wind indicator: yes
Segmented circle: no

Airport Communications

WX ASOS at EWN (12 nm NE): 118.525 (252-514-2086)
WX ASOS at NCA (19 nm SW): 288.325

Nearby radio navigation aids

VOR radial/distance  VOR name  Freq  Var
EWNr254/11.4NEW BERN VOR/DME113.6008W
ISOr152/26.9KINSTON VORTAC117.5005W

 
NDB name  Hdg/Dist  Freq  Var  ID
KATFI268/8.936208WEW . .--
DIXON029/27.419808WDIW -.. .. .--
CHOCOWINITY201/31.738808WRNW .-. -. .--

Airport Services

Airframe service: NONE
Powerplant service: NONE

Runway Information

Runway 17/35

Dimensions: 3000 x 75 ft. / 914 x 23 m
Surface: turf
RUNWAY 17  RUNWAY 35
Traffic pattern: leftleft
Obstructions: bldgnone

Airport Ownership and Management from official FAA records

Ownership: Privately-owned
Owner: HIRAM C. BELL
BOX 162
POLLOCKSVILLE, NC 28537
Phone 252-224-6376
Manager: HIRAM C. BELL
BOX 162
POLLOCKSVILLE, NC 28537
Phone 252-224-6376

Airport Operational Statistics

Aircraft based on the field: 2
Single engine airplanes: 2
    

Additional Remarks

FOR CD CTC WASHINGTON ARTCC AT 703-771-3587.

Instrument Procedures

There are no published instrument procedures at 1NC4.

Some nearby airports with instrument procedures:

KEWN - Coastal Carolina Regional Airport (12 nm NE)
KNKT - Cherry Point Marine Corps Air Station (Cunningham Field) Airport (19 nm E)
KNCA - New River Marine Corps Air Station (McCutcheon Field) Airport (19 nm SW)
KOAJ - Albert J Ellis Airport (20 nm SW)
KISO - Kinston Regional Jetport at Stallings Field (27 nm NW)
 
Loc | Ops | Rwys | IFR | FBO | Links
Com | Nav | Svcs | Stats | Notes
Area around 1NC4 (Bell Strip Airport)
 
Road maps at: MapQuest Bing Google
 
Aerial photo
No photo
 
Sectional chart

 
Airport distance calculator
Flying to Bell Strip Airport? Find the distance to fly.

From to 1NC4

Sunrise and sunset
Times for 28-Nov-2022
 Local
(UTC-5)
 Zulu
(UTC)
Morning civil twilight06:2911:29
Sunrise06:5711:57
Sunset16:5721:57
Evening civil twilight17:2522:25

Current date and time
Zulu (UTC)  28-Nov-2022 12:31:57
Local (UTC-5)  28-Nov-2022 07:31:57
 
METAR
KEWN 
11nm NE 
281154Z 24006KT 10SM CLR 13/08 A2984 RMK AO2 SLP103 70001 T01280078 10178 20122 53022 $
KNCA 
19nm SW 
281156Z 25005KT 10SM CLR 12/09 A2984 RMK AO2 SLP107 70001 T01170094 10167 20117 53022 $
KNKT 
20nm E 
281156Z 23008KT 10SM CLR 12/08 A2984 RMK AO2 SLP101 70007 T01170083 10178 20117 53021
KOAJ 
21nm SW 
281156Z 21005KT 10SM CLR 10/08 A2985 RMK AO2 SLP111 T01000078 10161 20094 53023
TAF
KEWN 
11nm NE 
281122Z 2812/2912 25007KT P6SM SKC FM281500 27009G15KT P6SM SKC FM282000 29008G14KT P6SM FEW050 SCT080 FM282200 30006KT P6SM SCT120 FM290200 34004KT P6SM FEW240
KNCA 
19nm SW 
2809/2909 25010G20KT 9999 SKC QNH2976INS BECMG 2816/2818 27010G20KT 9999 SCT030 QNH2988INS FM290300 VRB05KT 9999 SKC QNH3007INS T18/2819Z T08/2909Z
NOTAMs
Click for the latest NOTAMs
NOTAMs are issued by the DoD/FAA and will open in a separate window not controlled by AirNav.

 

 
 

Would you like to see your business listed on this page?

 If your business provides an interesting product or service to pilots, flight crews, aircraft, or users of the Bell Strip Airport, you should consider listing it here.  To start the listing process, click on the button below
 
Add a business
 

Other Pages about Bell Strip Airport

Update a link
 
Copyright © AirNav, LLC. All rights reserved. Privacy Policy  Contact